Accueil
METAR-TAF:

METAR-TAF

Aéroports :

Aéroport international de Dallas-Fort Worth

Dallas / Fort Worth, Texas, États-Unis

latitude: 32-53-49N, longitude: 097-01-19W, altitude: 183 m

Observation

Le bulletin a été fait il y a 36 minutes, à 05:53 UTC
Vent 3 kt de est
Température 28°C
Humidité 62%
Pression 1016 hPa
Visibilité: 16.1 km
Quelques nuages à une hauteur de 30000 ft

METAR: KDFW 150553Z 10003KT 10SM FEW300 28/20 A2999 RMK AO2 SLP144 T02830200 10350 20278 403720272 51008

Heure: 01:29 (06:29 UTC)

Prévision

Le bulletin a été fait il y a 1 heure et 9 minutes, à 05:20 UTC
Prévision valable du 15 à 06 UTC au 16 à 12 UTC
Vent 4 kt de est/nord-est
Visibilité: 10 km
Quelques nuages à une hauteur de 30000 ft
A partir de 16 à 0200 UTC
Vent 6 kt de est
Visibilité: 10 km
Ciel clair

TAF: KDFW 150520Z 1506/1612 06004KT P6SM FEW300 FM160200 10006KT P6SM SKC

Observations et prévisions météorologiques de plus de 4000 aéroports (messages METAR et TAF).

Les stations disponibles sont représentées par des disques jaunes et rouges sur la carte.

Passer la souris dessus pour voir le nom de la station.

Cliquer dessus pour voir les observations et prévisions météorologiques.

Pour changer de carte: cliquez sur les boutons verts avec une croix noire pour zoomer, sur le bouton vert avec un tiret pour effectuer un zoom arrière, ou sur les flèches vertes pour les cartes adjacentes.


METAR-TAF: